createdAt,value
2023-06-01T00:00:23.832Z,5.60
2023-06-01T00:03:27.709Z,5.38
2023-06-01T00:06:31.479Z,5.93
2023-06-01T00:09:34.479Z,5.50
2023-06-01T00:12:37.498Z,6.37
2023-06-01T00:15:40.664Z,6.03
2023-06-01T00:18:43.844Z,6.85
2023-06-01T00:21:47.288Z,6.38
2023-06-01T00:24:50.657Z,6.18
2023-06-01T00:27:53.670Z,6.10
2023-06-01T00:30:56.686Z,7.33
2023-06-01T00:33:59.681Z,6.68
2023-06-01T00:37:02.710Z,6.32
2023-06-01T00:40:06.134Z,6.15
2023-06-01T00:43:09.105Z,6.53
2023-06-01T00:46:12.942Z,6.63
2023-06-01T00:49:16.068Z,6.32
2023-06-01T00:52:19.074Z,6.28
2023-06-01T00:55:22.551Z,6.57
2023-06-01T00:58:25.658Z,6.87
2023-06-01T01:01:28.874Z,7.17
2023-06-01T01:04:33.661Z,6.65
2023-06-01T01:07:42.602Z,6.78
2023-06-01T01:10:52.124Z,6.07
2023-06-01T01:13:59.913Z,7.30
2023-06-01T01:17:18.361Z,7.17
2023-06-01T01:20:28.238Z,7.50
2023-06-01T01:23:53.441Z,6.90
2023-06-01T01:27:15.884Z,7.43
2023-06-01T01:30:19.155Z,6.80
2023-06-01T01:33:22.566Z,7.03
2023-06-01T01:36:25.931Z,6.82
2023-06-01T01:39:28.932Z,7.15
2023-06-01T01:42:31.924Z,6.38
2023-06-01T01:45:34.972Z,7.60
2023-06-01T01:48:48.174Z,6.80
2023-06-01T01:51:57.440Z,6.80
2023-06-01T01:55:00.564Z,7.05
2023-06-01T01:58:03.888Z,7.00
2023-06-01T02:01:07.982Z,6.50
2023-06-01T02:04:11.802Z,6.93
2023-06-01T02:07:14.974Z,7.20
2023-06-01T02:10:18.551Z,6.75
2023-06-01T02:13:21.589Z,6.90
2023-06-01T02:16:24.638Z,6.63
2023-06-01T02:19:28.015Z,7.10
2023-06-01T02:22:31.123Z,7.45
2023-06-01T02:25:34.181Z,7.63
2023-06-01T02:28:40.422Z,7.43
2023-06-01T02:31:43.580Z,7.17
2023-06-01T02:34:46.819Z,7.57
2023-06-01T02:37:49.801Z,7.20
2023-06-01T02:40:52.915Z,6.90
2023-06-01T02:43:56.045Z,7.28
2023-06-01T02:46:59.049Z,7.00
2023-06-01T02:50:02.105Z,7.30
2023-06-01T02:53:06.386Z,7.75
2023-06-01T02:56:09.487Z,6.68
2023-06-01T02:59:35.826Z,6.75
2023-06-01T03:02:40.676Z,8.10
2023-06-01T03:05:44.257Z,7.90
2023-06-01T03:09:16.725Z,7.30
2023-06-01T03:12:29.970Z,6.78
2023-06-01T03:15:32.974Z,7.00
2023-06-01T03:18:38.692Z,7.23
2023-06-01T03:21:43.087Z,6.67
2023-06-01T03:24:48.968Z,6.93
2023-06-01T03:27:52.178Z,8.20
2023-06-01T03:30:55.245Z,6.88
2023-06-01T03:33:58.337Z,7.27
2023-06-01T03:37:02.206Z,7.53
2023-06-01T03:40:11.521Z,7.28
2023-06-01T03:43:14.756Z,7.32
2023-06-01T03:46:19.111Z,7.50
2023-06-01T03:49:22.494Z,7.63
2023-06-01T03:52:26.649Z,7.50
2023-06-01T03:55:31.107Z,7.30
2023-06-01T03:58:51.797Z,6.47
2023-06-01T04:01:56.545Z,6.85
2023-06-01T04:05:01.799Z,6.57
2023-06-01T04:08:04.868Z,7.33
2023-06-01T04:11:07.965Z,6.47
2023-06-01T04:14:11.177Z,6.65
2023-06-01T04:17:14.279Z,6.68
2023-06-01T04:20:17.730Z,5.97
2023-06-01T04:23:21.821Z,5.97
2023-06-01T04:26:26.420Z,6.53
2023-06-01T04:29:29.448Z,5.70
2023-06-01T04:32:33.871Z,5.80
2023-06-01T04:35:38.211Z,5.70
2023-06-01T04:38:44.400Z,5.37
2023-06-01T04:41:48.042Z,5.10
2023-06-01T04:44:51.047Z,5.22
2023-06-01T04:47:58.451Z,5.70
2023-06-01T04:51:09.895Z,5.00
2023-06-01T04:54:13.454Z,5.50
2023-06-01T04:57:17.706Z,4.75
2023-06-01T05:00:21.061Z,5.85
2023-06-01T05:03:24.148Z,4.57
2023-06-01T05:06:27.550Z,5.37
2023-06-01T05:09:31.024Z,5.00
2023-06-01T05:12:34.523Z,5.13
2023-06-01T05:15:37.733Z,4.55
2023-06-01T05:18:41.604Z,5.30
2023-06-01T05:21:45.813Z,4.57
2023-06-01T05:24:49.665Z,4.30
2023-06-01T05:27:52.817Z,4.32
2023-06-01T05:30:56.025Z,4.85
2023-06-01T05:33:59.324Z,4.32
2023-06-01T05:37:06.046Z,4.37
2023-06-01T05:40:10.225Z,6.00
2023-06-01T05:43:15.023Z,4.25
2023-06-01T05:46:18.281Z,4.43
2023-06-01T05:49:21.485Z,4.13
2023-06-01T05:52:25.608Z,4.80
2023-06-01T05:55:29.190Z,5.00
2023-06-01T05:58:32.490Z,5.07
2023-06-01T06:01:37.352Z,4.55
2023-06-01T06:04:45.264Z,4.22
2023-06-01T06:07:51.599Z,4.83
2023-06-01T06:10:57.722Z,5.03
2023-06-01T06:14:01.113Z,5.10
2023-06-01T06:17:04.547Z,4.88
2023-06-01T06:20:08.812Z,4.20
2023-06-01T06:23:12.305Z,4.50
2023-06-01T06:26:15.681Z,5.30
2023-06-01T06:29:18.746Z,4.90
2023-06-01T06:32:21.984Z,4.32
2023-06-01T06:35:25.323Z,4.70
2023-06-01T06:38:28.346Z,4.10
2023-06-01T06:41:31.510Z,4.10
2023-06-01T06:44:34.546Z,4.18
2023-06-01T06:47:38.370Z,5.18
2023-06-01T06:50:45.397Z,3.90
2023-06-01T06:53:48.422Z,4.30
2023-06-01T06:56:51.489Z,4.07
2023-06-01T06:59:54.532Z,4.00
2023-06-01T07:02:59.956Z,3.38
2023-06-01T07:06:03.110Z,3.47
2023-06-01T07:09:10.558Z,3.83
2023-06-01T07:12:13.754Z,3.03
2023-06-01T07:15:17.659Z,3.38
2023-06-01T07:18:20.751Z,4.10
2023-06-01T07:21:23.831Z,3.28
2023-06-01T07:24:30.049Z,4.20
2023-06-01T07:27:37.374Z,4.10
2023-06-01T07:30:40.496Z,4.15
2023-06-01T07:33:43.952Z,4.40
2023-06-01T07:36:50.450Z,4.40
2023-06-01T07:39:56.781Z,4.03
2023-06-01T07:43:03.001Z,4.07
2023-06-01T07:46:06.462Z,3.90
2023-06-01T07:49:14.479Z,14.65
2023-06-01T07:52:18.514Z,4.53
2023-06-01T07:55:21.970Z,3.87
2023-06-01T07:58:24.995Z,3.83
2023-06-01T08:01:28.084Z,10.90
2023-06-01T08:04:34.958Z,4.15
2023-06-01T08:07:39.193Z,3.83
2023-06-01T08:10:44.849Z,3.73
2023-06-01T08:13:47.988Z,3.97
2023-06-01T08:16:52.444Z,3.75
2023-06-01T08:19:56.618Z,3.72
2023-06-01T08:22:59.623Z,3.38
2023-06-01T08:26:03.279Z,3.90
2023-06-01T08:29:06.570Z,3.60
2023-06-01T08:32:10.756Z,3.40
2023-06-01T08:35:14.589Z,4.38
2023-06-01T08:38:20.784Z,3.88
2023-06-01T08:41:43.240Z,3.70
2023-06-01T08:44:49.553Z,4.90
2023-06-01T08:47:56.303Z,6.13
2023-06-01T08:50:59.356Z,6.43
2023-06-01T08:54:03.996Z,5.28
2023-06-01T08:57:10.854Z,6.37
2023-06-01T09:00:16.561Z,3.60
2023-06-01T09:03:20.638Z,4.13
2023-06-01T09:06:23.861Z,6.10
2023-06-01T09:09:26.956Z,3.90
2023-06-01T09:12:35.638Z,4.47
2023-06-01T09:15:53.555Z,3.80
2023-06-01T09:18:57.099Z,4.18
2023-06-01T09:22:00.776Z,4.30
2023-06-01T09:25:04.564Z,4.57
2023-06-01T09:28:07.686Z,4.40
2023-06-01T09:31:13.722Z,5.30
2023-06-01T09:34:19.761Z,4.40
2023-06-01T09:37:22.928Z,4.47
2023-06-01T09:40:26.106Z,5.05
2023-06-01T09:43:29.182Z,4.63
2023-06-01T09:46:32.207Z,4.93
2023-06-01T09:49:40.385Z,4.32
2023-06-01T09:52:43.471Z,4.95
2023-06-01T09:56:02.818Z,4.25
2023-06-01T09:59:05.999Z,4.83
2023-06-01T10:02:12.256Z,5.30
2023-06-01T10:05:15.418Z,5.03
2023-06-01T10:08:19.140Z,4.60
2023-06-01T10:11:22.177Z,5.18
2023-06-01T10:14:27.729Z,5.50
2023-06-01T10:17:30.742Z,5.10
2023-06-01T10:20:35.122Z,5.55
2023-06-01T10:23:38.295Z,5.18
2023-06-01T10:26:50.584Z,5.28
2023-06-01T10:29:56.755Z,5.43
2023-06-01T10:32:59.815Z,5.30
2023-06-01T10:36:03.255Z,5.55
2023-06-01T10:39:28.206Z,6.05
2023-06-01T10:42:38.430Z,5.88
2023-06-01T10:45:42.314Z,5.97
2023-06-01T10:49:00.674Z,5.77
2023-06-01T10:52:26.127Z,5.82
2023-06-01T10:55:30.518Z,6.75
2023-06-01T10:58:46.152Z,6.13
2023-06-01T11:01:49.381Z,6.10
2023-06-01T11:04:53.046Z,6.47
2023-06-01T11:07:57.233Z,5.55
2023-06-01T11:11:01.712Z,5.93
2023-06-01T11:14:12.473Z,6.55
2023-06-01T11:17:30.047Z,6.40
2023-06-01T11:20:49.953Z,6.47
2023-06-01T11:23:53.534Z,4.65
2023-06-01T11:26:56.577Z,6.72
2023-06-01T11:29:59.720Z,6.50
2023-06-01T11:33:03.188Z,6.70
2023-06-01T11:36:06.878Z,6.67
2023-06-01T11:39:23.940Z,6.55
2023-06-01T11:42:35.268Z,6.68
2023-06-01T11:45:39.100Z,6.90
2023-06-01T11:48:42.187Z,7.10
2023-06-01T11:51:48.331Z,6.93
2023-06-01T11:54:53.032Z,6.65
2023-06-01T11:57:56.111Z,6.72
2023-06-01T12:01:00.657Z,6.53
2023-06-01T12:04:04.450Z,7.83
2023-06-01T12:07:10.303Z,6.23
2023-06-01T12:10:15.958Z,6.57
2023-06-01T12:13:19.861Z,6.70
2023-06-01T12:16:28.690Z,6.85
2023-06-01T12:19:33.172Z,7.10
2023-06-01T12:22:36.395Z,6.67
2023-06-01T12:25:50.076Z,6.50
2023-06-01T12:29:00.046Z,7.03
2023-06-01T12:32:04.567Z,7.22
2023-06-01T12:35:08.287Z,6.97
2023-06-01T12:38:11.670Z,6.97
2023-06-01T12:41:14.698Z,7.10
2023-06-01T12:44:22.168Z,7.32
2023-06-01T12:47:25.970Z,7.73
2023-06-01T12:50:29.093Z,6.50
2023-06-01T12:53:32.264Z,7.03
2023-06-01T12:56:36.736Z,5.43
2023-06-01T12:59:39.934Z,6.05
2023-06-01T13:02:43.863Z,5.73
2023-06-01T13:05:47.149Z,5.87
2023-06-01T13:08:50.246Z,5.72
2023-06-01T13:11:53.249Z,4.72
2023-06-01T13:14:57.068Z,5.65
2023-06-01T13:18:00.210Z,5.07
2023-06-01T13:21:03.876Z,5.80
2023-06-01T13:24:08.826Z,4.88
2023-06-01T13:27:11.889Z,5.15
2023-06-01T13:30:15.207Z,5.60
2023-06-01T13:33:18.586Z,6.07
2023-06-01T13:36:22.221Z,5.47
2023-06-01T13:39:26.069Z,5.20
2023-06-01T13:42:29.097Z,5.70
2023-06-01T13:45:32.162Z,5.38
2023-06-01T13:48:35.281Z,5.17
2023-06-01T13:51:41.092Z,4.80
2023-06-01T13:54:44.143Z,5.03
2023-06-01T13:57:47.276Z,5.55
2023-06-01T14:00:50.292Z,5.22
2023-06-01T14:03:53.361Z,5.30
2023-06-01T14:06:56.846Z,5.00
2023-06-01T14:09:59.925Z,5.38
2023-06-01T14:13:03.710Z,5.85
2023-06-01T14:16:07.031Z,5.60
2023-06-01T14:19:10.458Z,5.00
2023-06-01T14:22:14.116Z,5.63
2023-06-01T14:25:18.642Z,5.22
2023-06-01T14:28:21.623Z,5.28
2023-06-01T14:31:24.717Z,5.60
2023-06-01T14:34:27.767Z,4.80
2023-06-01T14:37:37.878Z,5.27
2023-06-01T14:40:51.419Z,5.22
2023-06-01T14:43:54.442Z,5.20
2023-06-01T14:46:58.496Z,5.80
2023-06-01T14:50:04.133Z,5.40
2023-06-01T14:53:07.853Z,5.63
2023-06-01T14:56:10.991Z,6.20
2023-06-01T14:59:14.016Z,5.57
2023-06-01T15:02:17.032Z,5.70
2023-06-01T15:05:20.286Z,5.57
2023-06-01T15:08:24.355Z,5.80
2023-06-01T15:11:27.919Z,6.15
2023-06-01T15:14:30.940Z,5.40
2023-06-01T15:17:34.130Z,5.68
2023-06-01T15:20:37.264Z,5.23
2023-06-01T15:23:41.181Z,6.17
2023-06-01T15:26:44.152Z,6.07
2023-06-01T15:29:47.428Z,5.70
2023-06-01T15:33:06.939Z,5.80
2023-06-01T15:36:11.376Z,5.97
2023-06-01T15:39:16.356Z,7.00
2023-06-01T15:42:19.438Z,6.13
2023-06-01T15:45:22.471Z,5.38
2023-06-01T15:48:25.464Z,6.00
2023-06-01T15:51:29.146Z,5.23
2023-06-01T15:54:35.582Z,6.27
2023-06-01T15:57:38.628Z,5.80
2023-06-01T16:00:41.619Z,5.30
2023-06-01T16:03:45.432Z,6.15
2023-06-01T16:06:48.469Z,5.93
2023-06-01T16:09:56.414Z,5.63
2023-06-01T16:12:59.902Z,5.72
2023-06-01T16:16:03.015Z,5.22
2023-06-01T16:19:06.013Z,5.35
2023-06-01T16:22:09.193Z,5.30
2023-06-01T16:25:12.179Z,5.53
2023-06-01T16:28:15.189Z,5.43
2023-06-01T16:31:18.776Z,5.65
2023-06-01T16:34:21.822Z,5.28
2023-06-01T16:37:24.897Z,5.13
2023-06-01T16:40:27.912Z,5.10
2023-06-01T16:43:30.920Z,5.30
2023-06-01T16:46:33.958Z,4.97
2023-06-01T16:49:41.920Z,4.93
2023-06-01T16:52:44.974Z,4.90
2023-06-01T16:55:48.043Z,5.83
2023-06-01T16:58:51.137Z,4.63
2023-06-01T17:01:54.411Z,5.28
2023-06-01T17:04:58.002Z,5.10
2023-06-01T17:08:01.063Z,4.97
2023-06-01T17:11:04.379Z,5.10
2023-06-01T17:14:07.681Z,5.03
2023-06-01T17:17:10.880Z,5.40
2023-06-01T17:20:15.708Z,5.43
2023-06-01T17:23:18.741Z,6.07
2023-06-01T17:26:22.024Z,5.93
2023-06-01T17:29:25.131Z,5.18
2023-06-01T17:32:28.405Z,5.47
2023-06-01T17:35:31.452Z,5.13
2023-06-01T17:38:34.514Z,4.97
2023-06-01T17:41:43.734Z,4.90
2023-06-01T17:44:46.809Z,5.47
2023-06-01T17:47:50.072Z,5.57
2023-06-01T17:50:54.377Z,4.95
2023-06-01T17:53:57.677Z,4.97
2023-06-01T17:57:00.878Z,4.63
2023-06-01T18:00:04.219Z,5.10
2023-06-01T18:03:11.377Z,5.40
2023-06-01T18:06:17.928Z,5.15
2023-06-01T18:09:23.726Z,5.50
2023-06-01T18:12:26.759Z,5.53
2023-06-01T18:15:29.743Z,5.18
2023-06-01T18:18:34.659Z,5.25
2023-06-01T18:21:40.633Z,5.20
2023-06-01T18:24:43.855Z,5.40
2023-06-01T18:27:46.880Z,5.67
2023-06-01T18:30:49.962Z,5.90
2023-06-01T18:33:53.079Z,5.88
2023-06-01T18:36:56.080Z,5.90
2023-06-01T18:39:59.081Z,6.03
2023-06-01T18:43:03.135Z,6.90
2023-06-01T18:46:06.464Z,6.43
2023-06-01T18:49:09.595Z,5.78
2023-06-01T18:52:13.854Z,5.80
2023-06-01T18:55:19.159Z,6.73
2023-06-01T18:58:22.398Z,6.37
2023-06-01T19:01:25.517Z,6.85
2023-06-01T19:04:28.616Z,5.75
2023-06-01T19:07:36.301Z,6.60
2023-06-01T19:10:45.536Z,8.17
2023-06-01T19:13:49.341Z,6.53
2023-06-01T19:16:52.486Z,6.45
2023-06-01T19:19:55.825Z,6.25
2023-06-01T19:23:01.461Z,6.35
2023-06-01T19:26:11.150Z,6.40
2023-06-01T19:29:14.543Z,6.50
2023-06-01T19:32:19.839Z,6.00
2023-06-01T19:35:22.851Z,6.53
2023-06-01T19:38:25.824Z,5.88
2023-06-01T19:41:28.842Z,5.93
2023-06-01T19:44:32.030Z,6.00
2023-06-01T19:47:50.415Z,5.93
2023-06-01T19:50:55.695Z,6.03
2023-06-01T19:53:58.825Z,6.38
2023-06-01T19:57:01.843Z,6.30
2023-06-01T20:00:05.461Z,6.70
2023-06-01T20:03:12.676Z,6.78
2023-06-01T20:06:18.080Z,6.85
2023-06-01T20:09:22.124Z,6.93
2023-06-01T20:12:26.338Z,7.20
2023-06-01T20:15:35.188Z,7.10
2023-06-01T20:18:40.153Z,6.75
2023-06-01T20:21:47.697Z,6.60
2023-06-01T20:24:50.754Z,7.03
2023-06-01T20:27:53.806Z,6.47
2023-06-01T20:31:06.270Z,6.43
2023-06-01T20:34:09.491Z,7.05
2023-06-01T20:37:12.536Z,7.25
2023-06-01T20:40:19.360Z,6.80
2023-06-01T20:43:25.740Z,7.33
2023-06-01T20:46:30.151Z,7.00
2023-06-01T20:49:33.158Z,7.10
2023-06-01T20:52:36.747Z,7.25
2023-06-01T20:55:40.388Z,6.72
2023-06-01T20:58:43.574Z,7.17
2023-06-01T21:01:48.591Z,7.27
2023-06-01T21:04:51.585Z,7.13
2023-06-01T21:07:54.616Z,7.05
2023-06-01T21:10:57.734Z,7.88
2023-06-01T21:14:00.906Z,7.17
2023-06-01T21:17:04.093Z,7.40
2023-06-01T21:20:07.929Z,6.68
2023-06-01T21:23:11.165Z,6.57
2023-06-01T21:26:15.419Z,6.65
2023-06-01T21:29:18.754Z,6.90
2023-06-01T21:32:21.814Z,6.43
2023-06-01T21:35:24.868Z,7.30
2023-06-01T21:38:27.922Z,7.63
2023-06-01T21:41:30.982Z,7.78
2023-06-01T21:44:33.997Z,8.20
2023-06-01T21:47:37.222Z,7.97
2023-06-01T21:50:41.167Z,8.40
2023-06-01T21:53:44.232Z,8.55
2023-06-01T21:56:47.295Z,8.25
2023-06-01T21:59:52.128Z,9.20
2023-06-01T22:02:55.652Z,8.40
2023-06-01T22:05:58.817Z,8.75
2023-06-01T22:09:02.024Z,8.48
2023-06-01T22:12:05.684Z,8.80
2023-06-01T22:15:09.652Z,7.80
2023-06-01T22:18:12.985Z,7.87
2023-06-01T22:21:16.225Z,7.65
2023-06-01T22:24:19.266Z,7.93
2023-06-01T22:27:23.013Z,9.02
2023-06-01T22:30:26.942Z,8.93
2023-06-01T22:33:30.228Z,8.37
2023-06-01T22:36:33.292Z,8.75
2023-06-01T22:39:36.424Z,7.90
2023-06-01T22:42:39.550Z,8.20
2023-06-01T22:45:42.629Z,8.37
2023-06-01T22:48:49.385Z,8.33
2023-06-01T22:51:59.921Z,8.00
2023-06-01T22:55:07.054Z,8.55
2023-06-01T22:58:11.535Z,8.25
2023-06-01T23:01:14.756Z,8.33
2023-06-01T23:04:21.205Z,8.30
2023-06-01T23:07:25.595Z,8.15
2023-06-01T23:10:29.505Z,8.40
2023-06-01T23:13:36.752Z,7.78
2023-06-01T23:16:40.177Z,6.70
2023-06-01T23:19:44.103Z,7.03
2023-06-01T23:22:47.263Z,7.00
2023-06-01T23:25:50.486Z,7.80
2023-06-01T23:29:00.021Z,7.90
2023-06-01T23:32:03.207Z,8.00
2023-06-01T23:35:06.812Z,7.83
2023-06-01T23:38:12.105Z,8.07
2023-06-01T23:41:15.247Z,8.02
2023-06-01T23:44:18.387Z,8.30
2023-06-01T23:47:22.166Z,7.47
2023-06-01T23:50:28.274Z,8.40
2023-06-01T23:53:31.406Z,8.05
2023-06-01T23:56:34.681Z,8.35
2023-06-01T23:59:37.761Z,8.43
